Time;durP1;ratioP1;P1;durP2;ratioP2;P2;SDS_P1;SDS_P2;PMS_P1;PMS_P2;Temp;Humidity;BMP_temperature;BMP_pressure;BME280_temperature;BME280_humidity;BME280_pressure;Samples;Min_cycle;Max_cycle;Signal;HPM_P1;HPM_P2
2023/08/18 00:00:06;;;;;;;9.20;7.53;;;;;;;;;;5068012;28;20405;-74
2023/08/18 00:02:31;;;;;;;9.02;7.65;;;;;;;;;;5076835;28;20440;-72
2023/08/18 00:04:56;;;;;;;8.70;7.50;;;;;;;;;;5067840;28;20035;-71
2023/08/18 00:07:22;;;;;;;9.43;8.52;;;;;;;;;;5074693;28;20110;-70
2023/08/18 00:09:47;;;;;;;9.48;8.50;;;;;;;;;;5068148;28;20028;-71
2023/08/18 00:12:12;;;;;;;8.80;8.10;;;;;;;;;;5073469;28;20020;-73
2023/08/18 00:14:38;;;;;;;9.73;7.50;;;;;;;;;;5075535;28;20028;-71
2023/08/18 00:17:03;;;;;;;8.02;7.32;;;;;;;;;;5076865;28;20085;-72
2023/08/18 00:19:28;;;;;;;7.70;7.05;;;;;;;;;;5077828;28;20024;-73
2023/08/18 00:21:54;;;;;;;9.07;7.75;;;;;;;;;;5073027;28;20024;-71
2023/08/18 00:24:19;;;;;;;8.68;7.28;;;;;;;;;;5070145;28;20024;-72
2023/08/18 00:26:47;;;;;;;8.40;7.60;;;;;;;;;;5071251;28;20051;-72
2023/08/18 00:29:13;;;;;;;8.88;7.75;;;;;;;;;;5073121;28;20058;-72
2023/08/18 00:31:39;;;;;;;8.13;7.28;;;;;;;;;;5074182;28;20487;-72
2023/08/18 00:34:04;;;;;;;8.10;7.50;;;;;;;;;;5070806;28;20082;-72
2023/08/18 00:36:30;;;;;;;7.78;7.07;;;;;;;;;;5072323;28;20098;-72
2023/08/18 00:38:56;;;;;;;9.52;8.40;;;;;;;;;;5075998;28;20032;-70
2023/08/18 00:41:22;;;;;;;7.80;7.00;;;;;;;;;;5067654;28;20027;-71
2023/08/18 00:43:47;;;;;;;8.57;7.63;;;;;;;;;;5074759;28;20343;-72
2023/08/18 00:46:13;;;;;;;8.05;7.30;;;;;;;;;;5068045;28;20052;-73
2023/08/18 00:48:38;;;;;;;7.93;7.22;;;;;;;;;;5074865;28;20089;-73
2023/08/18 00:51:05;;;;;;;8.73;7.38;;;;;;;;;;5075278;28;20036;-72
2023/08/18 00:53:30;;;;;;;9.27;7.97;;;;;;;;;;5075511;28;20469;-73
2023/08/18 00:55:56;;;;;;;8.30;7.50;;;;;;;;;;5067068;28;20020;-72
2023/08/18 00:58:21;;;;;;;8.40;7.68;;;;;;;;;;5072769;28;20467;-73
2023/08/18 01:00:48;;;;;;;8.70;7.80;;;;;;;;;;5069443;28;20026;-73
2023/08/18 01:03:13;;;;;;;8.40;7.60;;;;;;;;;;5071313;28;20036;-70
2023/08/18 01:05:39;;;;;;;8.23;7.53;;;;;;;;;;5064127;28;20028;-71
2023/08/18 01:08:04;;;;;;;9.48;7.03;;;;;;;;;;5070753;28;20432;-71
2023/08/18 01:10:32;;;;;;;8.90;8.00;;;;;;;;;;5065202;28;20111;-70
2023/08/18 01:13:09;;;;;;;13.68;7.60;;;;;;;;;;5075187;28;20056;-72
2023/08/18 01:15:38;;;;;;;8.57;7.32;;;;;;;;;;5065612;28;20040;-73
2023/08/18 01:18:04;;;;;;;12.25;8.50;;;;;;;;;;5065232;28;20066;-72
2023/08/18 01:20:30;;;;;;;8.02;7.30;;;;;;;;;;5074487;28;20029;-71
2023/08/18 01:22:59;;;;;;;8.18;7.50;;;;;;;;;;5076098;28;20422;-72
2023/08/18 01:25:25;;;;;;;10.05;7.88;;;;;;;;;;5072751;28;20382;-72
2023/08/18 01:27:51;;;;;;;8.73;7.97;;;;;;;;;;5073860;28;20411;-72
2023/08/18 01:30:16;;;;;;;8.18;7.57;;;;;;;;;;5065102;28;20166;-71
2023/08/18 01:32:47;;;;;;;8.38;7.57;;;;;;;;;;5075117;28;20721;-73
2023/08/18 01:35:13;;;;;;;8.18;7.45;;;;;;;;;;5075242;28;20040;-72
2023/08/18 01:37:40;;;;;;;8.77;8.00;;;;;;;;;;5074872;28;20019;-72
2023/08/18 01:40:07;;;;;;;8.68;7.75;;;;;;;;;;5066779;28;20024;-73
2023/08/18 01:42:32;;;;;;;8.88;8.10;;;;;;;;;;5073260;28;20020;-73
2023/08/18 01:45:02;;;;;;;9.23;7.80;;;;;;;;;;5066574;28;20448;-70
2023/08/18 01:47:27;;;;;;;9.63;8.23;;;;;;;;;;5074258;28;20201;-71
2023/08/18 01:49:53;;;;;;;12.32;8.35;;;;;;;;;;5076170;28;20048;-71
2023/08/18 01:52:18;;;;;;;9.20;8.40;;;;;;;;;;5075733;28;20035;-70
2023/08/18 01:54:43;;;;;;;9.20;8.30;;;;;;;;;;5076108;28;20038;-73
2023/08/18 01:57:09;;;;;;;8.82;7.90;;;;;;;;;;5075596;28;20027;-73
2023/08/18 01:59:34;;;;;;;8.15;7.30;;;;;;;;;;5068738;28;20039;-72
2023/08/18 02:01:59;;;;;;;8.57;7.88;;;;;;;;;;5063424;28;20028;-73
2023/08/18 02:04:25;;;;;;;9.35;8.30;;;;;;;;;;5062002;28;20032;-70
2023/08/18 02:06:50;;;;;;;9.13;7.85;;;;;;;;;;5070148;28;20023;-72
2023/08/18 02:09:15;;;;;;;8.60;7.60;;;;;;;;;;5076771;28;20101;-71
2023/08/18 02:11:41;;;;;;;9.10;8.13;;;;;;;;;;5073754;28;20047;-71
2023/08/18 02:14:07;;;;;;;8.45;7.63;;;;;;;;;;5076475;28;20075;-72
2023/08/18 02:16:32;;;;;;;9.63;8.73;;;;;;;;;;5067943;28;20042;-71
2023/08/18 02:18:58;;;;;;;22.55;8.75;;;;;;;;;;5070376;28;20024;-71
2023/08/18 02:21:23;;;;;;;16.13;8.85;;;;;;;;;;5074869;28;20079;-72
2023/08/18 02:23:48;;;;;;;14.70;8.60;;;;;;;;;;5065052;28;20299;-72
2023/08/18 02:26:14;;;;;;;13.13;7.88;;;;;;;;;;5074718;28;20085;-72
2023/08/18 02:28:39;;;;;;;10.43;9.27;;;;;;;;;;5072733;28;20043;-73
2023/08/18 02:31:05;;;;;;;11.10;8.65;;;;;;;;;;5067428;28;20017;-73
2023/08/18 02:33:31;;;;;;;13.63;8.57;;;;;;;;;;5073144;28;20051;-73
2023/08/18 02:35:59;;;;;;;9.65;8.65;;;;;;;;;;5065269;28;20043;-73
2023/08/18 02:38:24;;;;;;;11.55;8.77;;;;;;;;;;5066062;28;20391;-73
2023/08/18 02:40:50;;;;;;;11.85;8.63;;;;;;;;;;5072749;28;20115;-73
2023/08/18 02:43:15;;;;;;;11.05;8.05;;;;;;;;;;5070316;28;20116;-73
2023/08/18 02:45:40;;;;;;;10.90;8.82;;;;;;;;;;5062863;28;20455;-72
2023/08/18 02:48:06;;;;;;;11.32;9.15;;;;;;;;;;5060079;28;20042;-71
2023/08/18 02:50:31;;;;;;;10.35;9.45;;;;;;;;;;5070657;28;20122;-72
2023/08/18 02:53:00;;;;;;;11.88;10.25;;;;;;;;;;5062350;28;20335;-71
2023/08/18 02:55:26;;;;;;;11.57;9.00;;;;;;;;;;5073122;28;20123;-73
2023/08/18 02:57:51;;;;;;;9.82;8.88;;;;;;;;;;5065243;28;20165;-72
2023/08/18 03:00:16;;;;;;;10.50;9.57;;;;;;;;;;5062711;28;20387;-74
2023/08/18 03:02:42;;;;;;;10.93;9.15;;;;;;;;;;5075201;28;20081;-72
2023/08/18 03:05:07;;;;;;;9.20;8.48;;;;;;;;;;5068241;28;20032;-72
2023/08/18 03:07:33;;;;;;;11.43;9.55;;;;;;;;;;5063038;28;20023;-72
2023/08/18 03:09:59;;;;;;;10.70;9.55;;;;;;;;;;5065504;28;20042;-73
2023/08/18 03:12:25;;;;;;;10.18;9.23;;;;;;;;;;5072105;28;20059;-74
2023/08/18 03:14:50;;;;;;;10.15;9.13;;;;;;;;;;5075593;28;20072;-73
2023/08/18 03:17:16;;;;;;;10.15;8.48;;;;;;;;;;5072029;28;20416;-72
2023/08/18 03:19:41;;;;;;;12.93;9.18;;;;;;;;;;5065520;28;20439;-72
2023/08/18 03:22:07;;;;;;;11.20;9.68;;;;;;;;;;5071990;28;20028;-72
2023/08/18 03:24:33;;;;;;;11.27;9.00;;;;;;;;;;5073305;28;20024;-72
2023/08/18 03:26:58;;;;;;;14.10;9.40;;;;;;;;;;5073906;28;20435;-73
2023/08/18 03:29:23;;;;;;;14.20;9.65;;;;;;;;;;5069725;28;20026;-73
2023/08/18 03:31:49;;;;;;;11.85;10.00;;;;;;;;;;5066429;28;20273;-72
2023/08/18 03:34:14;;;;;;;11.48;9.40;;;;;;;;;;5072082;28;20032;-73
2023/08/18 03:36:39;;;;;;;13.38;9.55;;;;;;;;;;5073072;28;20046;-73
2023/08/18 03:39:05;;;;;;;11.45;9.90;;;;;;;;;;5072451;28;20123;-72
2023/08/18 03:41:31;;;;;;;13.65;10.13;;;;;;;;;;5071242;28;20502;-72
2023/08/18 03:43:57;;;;;;;11.63;9.95;;;;;;;;;;5072217;28;20024;-71
2023/08/18 03:46:25;;;;;;;10.63;9.50;;;;;;;;;;5066672;28;20131;-71
2023/08/18 03:48:50;;;;;;;10.48;9.45;;;;;;;;;;5066455;28;20128;-71
2023/08/18 03:51:16;;;;;;;10.05;9.15;;;;;;;;;;5065308;28;20077;-73
2023/08/18 03:53:41;;;;;;;10.98;10.02;;;;;;;;;;5065848;28;20032;-71
2023/08/18 03:56:07;;;;;;;10.55;9.50;;;;;;;;;;5069116;28;20032;-71
2023/08/18 03:58:32;;;;;;;14.27;9.75;;;;;;;;;;5073522;28;20028;-72
2023/08/18 04:01:05;;;;;;;9.73;8.60;;;;;;;;;;5069358;28;20078;-71
2023/08/18 04:03:31;;;;;;;10.98;9.88;;;;;;;;;;5048597;28;20501;-74
2023/08/18 04:05:56;;;;;;;10.15;9.15;;;;;;;;;;5049474;28;20029;-73
2023/08/18 04:08:22;;;;;;;10.30;9.05;;;;;;;;;;5053740;28;20029;-72
2023/08/18 04:10:47;;;;;;;10.05;9.05;;;;;;;;;;5052712;28;20473;-71
2023/08/18 04:13:13;;;;;;;10.23;9.32;;;;;;;;;;5058640;28;20028;-72
2023/08/18 04:15:38;;;;;;;11.20;9.02;;;;;;;;;;5069159;28;20024;-74
2023/08/18 04:18:04;;;;;;;10.85;9.75;;;;;;;;;;5072785;28;20032;-72
2023/08/18 04:20:29;;;;;;;10.50;9.48;;;;;;;;;;5066014;28;20058;-73
2023/08/18 04:22:55;;;;;;;10.20;9.20;;;;;;;;;;5077962;28;20051;-73
2023/08/18 04:25:20;;;;;;;11.45;10.18;;;;;;;;;;5065253;28;20024;-73
2023/08/18 04:27:45;;;;;;;10.38;9.48;;;;;;;;;;5060688;28;20055;-72
2023/08/18 04:30:11;;;;;;;10.60;9.52;;;;;;;;;;5053330;28;20351;-71
2023/08/18 04:32:36;;;;;;;12.52;10.13;;;;;;;;;;5053234;28;20109;-73
2023/08/18 04:35:02;;;;;;;10.13;8.82;;;;;;;;;;5064328;28;20383;-71
2023/08/18 04:37:28;;;;;;;10.90;9.77;;;;;;;;;;5062940;28;20025;-71
2023/08/18 04:39:53;;;;;;;10.45;9.40;;;;;;;;;;5062228;28;20027;-70
2023/08/18 04:42:19;;;;;;;11.40;10.15;;;;;;;;;;5076029;28;20081;-70
2023/08/18 04:44:44;;;;;;;11.77;10.25;;;;;;;;;;5073849;28;21088;-71
2023/08/18 04:47:09;;;;;;;11.55;9.75;;;;;;;;;;5074772;28;20024;-70
2023/08/18 04:49:35;;;;;;;11.35;10.18;;;;;;;;;;5073611;28;20027;-70
2023/08/18 04:52:00;;;;;;;15.23;10.68;;;;;;;;;;5064263;28;20545;-70
2023/08/18 04:54:25;;;;;;;13.25;9.70;;;;;;;;;;5062598;28;20020;-71
2023/08/18 04:56:56;;;;;;;11.18;9.95;;;;;;;;;;5047444;28;20055;-69
2023/08/18 04:59:22;;;;;;;15.95;10.40;;;;;;;;;;5073692;28;20075;-70
2023/08/18 05:01:47;;;;;;;10.27;9.38;;;;;;;;;;5073395;28;20056;-70
2023/08/18 05:04:12;;;;;;;12.70;10.82;;;;;;;;;;5072178;28;20028;-70
2023/08/18 05:06:38;;;;;;;10.40;9.45;;;;;;;;;;5071863;28;20035;-69
2023/08/18 05:09:05;;;;;;;11.15;10.10;;;;;;;;;;5075143;28;20093;-69
2023/08/18 05:11:30;;;;;;;12.13;10.07;;;;;;;;;;5074662;28;20039;-72
2023/08/18 05:13:56;;;;;;;11.13;10.02;;;;;;;;;;5072209;28;20026;-69
2023/08/18 05:16:21;;;;;;;11.30;10.15;;;;;;;;;;5072773;28;20036;-68
2023/08/18 05:18:47;;;;;;;13.60;10.32;;;;;;;;;;5076323;28;20040;-71
2023/08/18 05:21:12;;;;;;;10.60;9.63;;;;;;;;;;5071520;28;20024;-71
2023/08/18 05:23:38;;;;;;;11.77;9.90;;;;;;;;;;5072948;28;20024;-71
2023/08/18 05:26:03;;;;;;;11.20;9.75;;;;;;;;;;5071154;28;20028;-70
2023/08/18 05:28:29;;;;;;;11.95;10.43;;;;;;;;;;5073665;28;20036;-70
2023/08/18 05:30:54;;;;;;;11.65;10.27;;;;;;;;;;5073513;28;20027;-72
2023/08/18 05:33:20;;;;;;;12.20;11.10;;;;;;;;;;5072953;28;20028;-71
2023/08/18 05:35:47;;;;;;;14.43;10.88;;;;;;;;;;5075300;28;20107;-71
2023/08/18 05:38:12;;;;;;;12.20;11.02;;;;;;;;;;5074718;28;20043;-71
2023/08/18 05:40:42;;;;;;;11.55;10.32;;;;;;;;;;5057743;28;20020;-70
2023/08/18 05:43:09;;;;;;;11.00;10.02;;;;;;;;;;5070977;28;20430;-71
2023/08/18 05:45:36;;;;;;;10.98;9.93;;;;;;;;;;5072567;28;20136;-71
2023/08/18 05:48:01;;;;;;;12.63;11.35;;;;;;;;;;5073948;28;20411;-70
2023/08/18 05:50:27;;;;;;;12.60;11.40;;;;;;;;;;5074150;28;20036;-71
2023/08/18 05:52:52;;;;;;;12.80;11.57;;;;;;;;;;5075169;28;20025;-71
2023/08/18 05:55:18;;;;;;;13.75;11.20;;;;;;;;;;5073002;28;20455;-71
2023/08/18 05:57:44;;;;;;;13.27;11.05;;;;;;;;;;5075519;28;20020;-72
2023/08/18 06:00:10;;;;;;;13.93;11.82;;;;;;;;;;5071646;28;20123;-71
2023/08/18 06:02:36;;;;;;;12.95;11.68;;;;;;;;;;5074998;28;20144;-72
2023/08/18 06:05:01;;;;;;;14.23;12.68;;;;;;;;;;5072500;28;20038;-71
2023/08/18 06:07:26;;;;;;;14.90;13.50;;;;;;;;;;5071620;28;20028;-71
2023/08/18 06:09:52;;;;;;;15.05;13.65;;;;;;;;;;5071681;28;20119;-71
2023/08/18 06:12:17;;;;;;;15.85;14.32;;;;;;;;;;5055365;28;20031;-73
2023/08/18 06:14:42;;;;;;;14.43;13.02;;;;;;;;;;5074286;28;20023;-71
2023/08/18 06:17:08;;;;;;;14.10;12.68;;;;;;;;;;5055453;28;20040;-71
2023/08/18 06:19:33;;;;;;;18.45;13.63;;;;;;;;;;5072059;28;20648;-72
2023/08/18 06:21:59;;;;;;;14.05;12.65;;;;;;;;;;5075740;28;20082;-71
2023/08/18 06:24:24;;;;;;;13.82;11.93;;;;;;;;;;5071018;28;20024;-73
2023/08/18 06:26:49;;;;;;;14.15;12.65;;;;;;;;;;5071384;28;20028;-72
2023/08/18 06:29:15;;;;;;;13.52;12.18;;;;;;;;;;5073796;28;20044;-70
2023/08/18 06:31:40;;;;;;;13.40;10.95;;;;;;;;;;5069192;28;20016;-70
2023/08/18 06:34:05;;;;;;;15.48;10.45;;;;;;;;;;5067878;28;20446;-69
2023/08/18 06:36:31;;;;;;;11.93;9.93;;;;;;;;;;5074500;28;20028;-71
2023/08/18 06:38:56;;;;;;;12.60;9.13;;;;;;;;;;5071582;28;20099;-72
2023/08/18 06:41:22;;;;;;;11.82;9.63;;;;;;;;;;5073267;28;20073;-72
2023/08/18 06:43:47;;;;;;;11.52;8.98;;;;;;;;;;5072124;28;20097;-70
2023/08/18 06:46:12;;;;;;;9.48;8.60;;;;;;;;;;5073270;28;20056;-70
2023/08/18 06:48:38;;;;;;;13.27;8.35;;;;;;;;;;5073533;28;20029;-69
2023/08/18 06:51:03;;;;;;;11.80;8.55;;;;;;;;;;5072471;28;20098;-72
2023/08/18 06:53:28;;;;;;;14.10;10.02;;;;;;;;;;5071977;28;20110;-71
2023/08/18 06:55:55;;;;;;;10.60;9.60;;;;;;;;;;5071366;28;20028;-69
2023/08/18 06:58:20;;;;;;;11.38;8.57;;;;;;;;;;5072390;28;20043;-71
2023/08/18 07:00:46;;;;;;;10.02;8.95;;;;;;;;;;5072751;28;20024;-73
2023/08/18 07:03:11;;;;;;;8.68;7.75;;;;;;;;;;5073567;28;20063;-71
2023/08/18 07:05:36;;;;;;;8.55;7.63;;;;;;;;;;5073533;28;20093;-72
2023/08/18 07:08:03;;;;;;;12.38;8.05;;;;;;;;;;5073040;28;20073;-75
2023/08/18 07:10:28;;;;;;;9.98;8.18;;;;;;;;;;5075507;28;20024;-70
2023/08/18 07:12:53;;;;;;;8.30;7.07;;;;;;;;;;5072575;28;20497;-72
2023/08/18 07:15:19;;;;;;;11.32;7.53;;;;;;;;;;5073770;28;20040;-72
2023/08/18 07:17:44;;;;;;;8.18;7.40;;;;;;;;;;5073166;28;20020;-71
2023/08/18 07:20:12;;;;;;;7.82;7.00;;;;;;;;;;5074369;28;20111;-74
2023/08/18 07:22:38;;;;;;;8.23;7.20;;;;;;;;;;5074486;28;20108;-73
2023/08/18 07:25:04;;;;;;;10.43;6.80;;;;;;;;;;5070332;28;20103;-72
2023/08/18 07:27:30;;;;;;;11.90;7.20;;;;;;;;;;5076867;28;20028;-72
2023/08/18 07:29:55;;;;;;;7.13;6.55;;;;;;;;;;5075243;28;20111;-72
2023/08/18 07:32:20;;;;;;;11.23;7.15;;;;;;;;;;5076891;28;20091;-71
2023/08/18 07:34:46;;;;;;;11.38;7.20;;;;;;;;;;5073498;28;20016;-73
2023/08/18 07:37:11;;;;;;;13.55;6.35;;;;;;;;;;5074172;28;21173;-72
2023/08/18 07:39:37;;;;;;;8.50;6.28;;;;;;;;;;5076163;28;20043;-72
2023/08/18 07:42:02;;;;;;;9.57;6.57;;;;;;;;;;5075476;28;20078;-71
2023/08/18 07:44:27;;;;;;;8.40;6.07;;;;;;;;;;5076052;28;20346;-70
2023/08/18 07:46:53;;;;;;;10.80;6.53;;;;;;;;;;5077250;28;20402;-70
2023/08/18 07:49:18;;;;;;;8.10;6.18;;;;;;;;;;5078517;28;20039;-72
2023/08/18 07:51:43;;;;;;;8.25;6.28;;;;;;;;;;5079481;28;20020;-72
2023/08/18 07:54:09;;;;;;;9.10;6.72;;;;;;;;;;5078393;28;20040;-74
2023/08/18 07:56:34;;;;;;;10.35;5.93;;;;;;;;;;5078040;28;20042;-72
2023/08/18 07:59:01;;;;;;;7.68;5.72;;;;;;;;;;5079237;28;20051;-72
2023/08/18 08:01:27;;;;;;;8.93;6.40;;;;;;;;;;5076859;28;20100;-72
2023/08/18 08:03:52;;;;;;;8.23;5.70;;;;;;;;;;5074463;28;20131;-72
2023/08/18 08:06:18;;;;;;;7.18;5.78;;;;;;;;;;5077889;28;20457;-69
2023/08/18 08:08:43;;;;;;;7.20;5.57;;;;;;;;;;5078673;28;20024;-72
2023/08/18 08:11:09;;;;;;;8.95;6.20;;;;;;;;;;5076597;28;20035;-72
2023/08/18 08:13:34;;;;;;;7.65;5.50;;;;;;;;;;5077073;28;20024;-72
2023/08/18 08:16:00;;;;;;;6.05;5.13;;;;;;;;;;5080319;28;20036;-74
2023/08/18 08:18:25;;;;;;;6.18;5.43;;;;;;;;;;5059055;28;20413;-72
2023/08/18 08:20:51;;;;;;;9.82;5.57;;;;;;;;;;5077451;28;20104;-73
2023/08/18 08:23:16;;;;;;;5.20;4.80;;;;;;;;;;5077932;28;20671;-72
2023/08/18 08:25:42;;;;;;;6.18;5.10;;;;;;;;;;5079257;28;20071;-71
2023/08/18 08:28:07;;;;;;;6.53;5.45;;;;;;;;;;5078471;28;20031;-71
2023/08/18 08:30:32;;;;;;;6.05;5.45;;;;;;;;;;5077648;28;20035;-72
2023/08/18 08:32:58;;;;;;;9.15;5.60;;;;;;;;;;5075709;28;20187;-72
2023/08/18 08:35:23;;;;;;;8.65;5.55;;;;;;;;;;5080032;28;20027;-71
2023/08/18 08:37:48;;;;;;;5.95;5.05;;;;;;;;;;5079138;28;20330;-71
2023/08/18 08:40:18;;;;;;;7.60;5.07;;;;;;;;;;5078209;28;20085;-73
2023/08/18 08:42:43;;;;;;;8.13;5.10;;;;;;;;;;5078415;28;20032;-70
2023/08/18 08:45:09;;;;;;;6.72;5.18;;;;;;;;;;5076080;28;20063;-74
2023/08/18 08:47:34;;;;;;;5.32;4.85;;;;;;;;;;5077053;28;20020;-73
2023/08/18 08:50:02;;;;;;;5.13;4.72;;;;;;;;;;5076628;28;20028;-74
2023/08/18 08:52:30;;;;;;;7.25;4.75;;;;;;;;;;5060447;28;20311;-73
2023/08/18 08:54:58;;;;;;;6.47;4.68;;;;;;;;;;5074560;28;20024;-70
2023/08/18 08:57:23;;;;;;;8.88;4.97;;;;;;;;;;5075587;28;20036;-70
2023/08/18 08:59:49;;;;;;;8.13;4.68;;;;;;;;;;5075320;28;20051;-75
2023/08/18 09:02:15;;;;;;;6.45;5.03;;;;;;;;;;5077014;28;20028;-72
2023/08/18 09:04:40;;;;;;;5.32;4.38;;;;;;;;;;5077340;28;20036;-73
2023/08/18 09:07:07;;;;;;;5.25;4.70;;;;;;;;;;5073548;28;20033;-73
2023/08/18 09:09:32;;;;;;;8.50;4.57;;;;;;;;;;5078666;28;20450;-72
2023/08/18 09:12:05;;;;;;;6.05;4.53;;;;;;;;;;5077932;28;20024;-72
2023/08/18 09:14:32;;;;;;;11.45;4.30;;;;;;;;;;5069988;28;20398;-75
2023/08/18 09:16:57;;;;;;;6.18;4.15;;;;;;;;;;5063810;28;20028;-70
2023/08/18 09:19:25;;;;;;;5.30;4.15;;;;;;;;;;5062823;28;20039;-72
2023/08/18 09:21:50;;;;;;;6.47;4.20;;;;;;;;;;5065156;28;20343;-71
2023/08/18 09:24:19;;;;;;;7.78;4.28;;;;;;;;;;5075871;28;20115;-74
2023/08/18 09:26:44;;;;;;;6.55;4.10;;;;;;;;;;5077580;28;20033;-73
2023/08/18 09:29:09;;;;;;;5.80;4.43;;;;;;;;;;5073612;28;20119;-72
2023/08/18 09:31:35;;;;;;;7.30;4.20;;;;;;;;;;5073939;28;20082;-73
2023/08/18 09:34:02;;;;;;;4.70;3.83;;;;;;;;;;5075263;28;20036;-72
2023/08/18 09:36:27;;;;;;;8.93;3.95;;;;;;;;;;5075472;28;20408;-72
2023/08/18 09:38:53;;;;;;;7.15;4.20;;;;;;;;;;5075337;28;20028;-70
2023/08/18 09:41:18;;;;;;;5.43;3.63;;;;;;;;;;5076086;28;20024;-71
2023/08/18 09:43:43;;;;;;;7.55;3.75;;;;;;;;;;5075581;28;20048;-72
2023/08/18 09:46:13;;;;;;;4.47;3.88;;;;;;;;;;5068164;28;20056;-72
2023/08/18 09:48:39;;;;;;;5.88;4.10;;;;;;;;;;5068138;28;20030;-71
2023/08/18 09:51:12;;;;;;;9.68;4.25;;;;;;;;;;5073163;28;20355;-72
2023/08/18 09:53:39;;;;;;;6.20;3.60;;;;;;;;;;5072899;28;20111;-73
2023/08/18 09:56:15;;;;;;;6.28;3.70;;;;;;;;;;5069120;28;20028;-70
2023/08/18 09:58:43;;;;;;;5.05;3.72;;;;;;;;;;5069860;28;20035;-70
2023/08/18 10:01:08;;;;;;;6.55;4.18;;;;;;;;;;5064816;28;20024;-73
2023/08/18 10:03:37;;;;;;;4.82;3.70;;;;;;;;;;5063227;28;20012;-71
2023/08/18 10:06:06;;;;;;;7.22;4.22;;;;;;;;;;5064212;28;20031;-70
2023/08/18 10:08:33;;;;;;;5.50;3.40;;;;;;;;;;5074791;28;20143;-73
2023/08/18 10:10:58;;;;;;;7.82;4.00;;;;;;;;;;5068835;28;20096;-70
2023/08/18 10:13:24;;;;;;;5.90;4.15;;;;;;;;;;5058587;28;20039;-70
2023/08/18 10:15:50;;;;;;;6.00;3.70;;;;;;;;;;5060391;28;20040;-72
2023/08/18 10:18:16;;;;;;;5.22;3.45;;;;;;;;;;5062800;28;20024;-73
2023/08/18 10:20:49;;;;;;;7.40;4.03;;;;;;;;;;5063141;28;20152;-73
2023/08/18 10:23:14;;;;;;;6.22;3.90;;;;;;;;;;5062946;28;20020;-74
2023/08/18 10:25:40;;;;;;;9.30;4.07;;;;;;;;;;5058987;28;20042;-72
2023/08/18 10:28:06;;;;;;;5.25;3.90;;;;;;;;;;5057859;28;23005;-71
2023/08/18 10:30:31;;;;;;;7.13;3.92;;;;;;;;;;5058796;28;20016;-71
2023/08/18 10:33:00;;;;;;;4.45;3.72;;;;;;;;;;5058332;28;20044;-76
2023/08/18 10:35:27;;;;;;;5.40;3.70;;;;;;;;;;5060147;28;20428;-72
2023/08/18 10:37:53;;;;;;;3.60;3.33;;;;;;;;;;5062797;28;20320;-73
2023/08/18 10:40:25;;;;;;;4.32;3.38;;;;;;;;;;5061458;28;20035;-76
2023/08/18 10:42:52;;;;;;;5.03;3.92;;;;;;;;;;5059878;28;20048;-77
2023/08/18 10:45:24;;;;;;;5.55;3.78;;;;;;;;;;5056954;28;20049;-72
2023/08/18 10:47:51;;;;;;;4.05;3.63;;;;;;;;;;5058086;28;20048;-76
2023/08/18 10:50:19;;;;;;;5.10;3.65;;;;;;;;;;5060518;28;20105;-73
2023/08/18 10:52:44;;;;;;;4.90;3.85;;;;;;;;;;5052753;28;20035;-74
2023/08/18 10:55:09;;;;;;;5.45;3.95;;;;;;;;;;5052520;28;20032;-74
2023/08/18 10:57:37;;;;;;;7.20;3.95;;;;;;;;;;5049582;28;20121;-75
2023/08/18 11:00:10;;;;;;;4.70;4.00;;;;;;;;;;5059255;28;20050;-72
2023/08/18 11:02:36;;;;;;;5.13;3.42;;;;;;;;;;5057181;28;20020;-72
2023/08/18 11:05:02;;;;;;;5.13;3.80;;;;;;;;;;5058513;28;20077;-72
2023/08/18 11:07:28;;;;;;;4.60;3.33;;;;;;;;;;5058566;28;20028;-71
2023/08/18 11:09:53;;;;;;;4.55;4.00;;;;;;;;;;5060877;28;20044;-74
2023/08/18 11:12:20;;;;;;;6.85;3.95;;;;;;;;;;5060259;28;20049;-72
2023/08/18 11:14:45;;;;;;;4.28;3.75;;;;;;;;;;5051712;28;20039;-73
2023/08/18 11:17:10;;;;;;;6.35;3.95;;;;;;;;;;5064726;28;20431;-73
2023/08/18 11:19:36;;;;;;;8.00;4.40;;;;;;;;;;5074297;28;20101;-76
2023/08/18 11:22:01;;;;;;;6.43;4.03;;;;;;;;;;5077582;28;20102;-73
2023/08/18 11:24:27;;;;;;;6.93;3.90;;;;;;;;;;5075447;28;20020;-76
2023/08/18 11:26:52;;;;;;;5.63;3.63;;;;;;;;;;5075979;28;20446;-75
2023/08/18 11:29:18;;;;;;;4.40;3.80;;;;;;;;;;5077977;28;20400;-72
2023/08/18 11:31:46;;;;;;;5.07;3.67;;;;;;;;;;5071196;28;20024;-77
2023/08/18 11:34:12;;;;;;;3.97;3.67;;;;;;;;;;5064626;28;20032;-76
2023/08/18 11:36:38;;;;;;;4.07;3.67;;;;;;;;;;5065365;28;20032;-73
2023/08/18 11:39:07;;;;;;;4.50;3.85;;;;;;;;;;5064444;28;20054;-77
2023/08/18 11:41:41;;;;;;;6.07;4.15;;;;;;;;;;5065547;28;20028;-74
2023/08/18 11:44:09;;;;;;;5.68;4.03;;;;;;;;;;5065977;28;20020;-73
2023/08/18 11:46:34;;;;;;;;;;;;;;;;;;5065015;28;20048;-75
2023/08/18 11:49:02;;;;;;;3.80;3.42;;;;;;;;;;5064647;28;20672;-75
2023/08/18 11:51:27;;;;;;;6.33;4.03;;;;;;;;;;5047445;28;20304;-76
2023/08/18 11:53:53;;;;;;;6.95;3.80;;;;;;;;;;5063179;28;20033;-76
2023/08/18 11:56:19;;;;;;;5.30;3.92;;;;;;;;;;5065672;28;20024;-74
2023/08/18 11:58:44;;;;;;;6.40;3.92;;;;;;;;;;5066323;28;20359;-75
2023/08/18 12:01:10;;;;;;;5.07;4.20;;;;;;;;;;5065489;28;20036;-72
2023/08/18 12:03:35;;;;;;;4.88;3.90;;;;;;;;;;5062919;28;20055;-73
2023/08/18 12:06:01;;;;;;;5.18;4.30;;;;;;;;;;5065244;28;20131;-74
2023/08/18 12:08:26;;;;;;;6.55;4.40;;;;;;;;;;5065211;28;20358;-74
2023/08/18 12:10:53;;;;;;;5.25;4.07;;;;;;;;;;5064655;28;20024;-74
2023/08/18 12:13:19;;;;;;;4.85;4.00;;;;;;;;;;5065148;28;20024;-75
2023/08/18 12:15:44;;;;;;;4.40;4.00;;;;;;;;;;5063955;28;20686;-73
2023/08/18 12:18:10;;;;;;;6.75;4.05;;;;;;;;;;5064041;28;20055;-72
2023/08/18 12:20:36;;;;;;;8.10;4.40;;;;;;;;;;5063557;28;20028;-76
2023/08/18 12:23:03;;;;;;;6.43;4.20;;;;;;;;;;5064595;28;20032;-73
2023/08/18 12:25:29;;;;;;;4.78;4.10;;;;;;;;;;5063331;28;20344;-74
2023/08/18 12:27:54;;;;;;;4.47;3.80;;;;;;;;;;5065948;28;20020;-74
2023/08/18 12:30:20;;;;;;;5.82;4.13;;;;;;;;;;5063542;28;20021;-76
2023/08/18 12:32:47;;;;;;;4.93;3.70;;;;;;;;;;5064087;28;20799;-74
2023/08/18 12:35:12;;;;;;;4.38;3.90;;;;;;;;;;5064914;28;20159;-74
2023/08/18 12:37:38;;;;;;;4.32;3.78;;;;;;;;;;5063023;28;20103;-77
2023/08/18 12:40:10;;;;;;;8.00;4.30;;;;;;;;;;5065417;28;20450;-77
2023/08/18 12:42:36;;;;;;;7.93;4.68;;;;;;;;;;5064497;28;20021;-77
2023/08/18 12:45:01;;;;;;;4.70;4.10;;;;;;;;;;5063630;28;20098;-74
2023/08/18 12:47:26;;;;;;;8.15;4.18;;;;;;;;;;5065038;28;20087;-74
2023/08/18 12:49:52;;;;;;;6.25;4.47;;;;;;;;;;5062819;28;20328;-75
2023/08/18 12:52:17;;;;;;;4.53;4.22;;;;;;;;;;5057849;28;20028;-76
2023/08/18 12:54:43;;;;;;;5.30;4.00;;;;;;;;;;5059885;28;20030;-76
2023/08/18 12:57:08;;;;;;;6.07;3.83;;;;;;;;;;5061468;28;20476;-72
2023/08/18 12:59:33;;;;;;;4.57;3.70;;;;;;;;;;5061123;28;20501;-72
2023/08/18 13:01:59;;;;;;;6.75;4.60;;;;;;;;;;5063353;28;20500;-73
2023/08/18 13:04:24;;;;;;;5.70;4.50;;;;;;;;;;5064123;28;20032;-73
2023/08/18 13:06:50;;;;;;;5.43;4.13;;;;;;;;;;5045093;28;20039;-71
2023/08/18 13:09:15;;;;;;;6.75;4.28;;;;;;;;;;5062570;28;20024;-74
2023/08/18 13:11:40;;;;;;;4.53;4.03;;;;;;;;;;5063749;28;20020;-72
2023/08/18 13:14:06;;;;;;;5.03;3.95;;;;;;;;;;5062767;28;20397;-73
2023/08/18 13:16:34;;;;;;;4.57;3.90;;;;;;;;;;5061342;28;20032;-76
2023/08/18 13:18:59;;;;;;;5.57;4.70;;;;;;;;;;5041639;28;20029;-73
2023/08/18 13:21:24;;;;;;;4.95;4.45;;;;;;;;;;5056215;28;20525;-72
2023/08/18 13:23:50;;;;;;;7.07;3.83;;;;;;;;;;5056978;28;20027;-72
2023/08/18 13:26:15;;;;;;;7.60;3.95;;;;;;;;;;5065195;28;20111;-73
2023/08/18 13:28:41;;;;;;;4.57;3.95;;;;;;;;;;5065660;28;20024;-74
2023/08/18 13:31:06;;;;;;;4.88;4.40;;;;;;;;;;5064478;28;20024;-73
2023/08/18 13:33:32;;;;;;;4.75;4.20;;;;;;;;;;5074610;28;20020;-76
2023/08/18 13:35:57;;;;;;;4.43;4.00;;;;;;;;;;5074942;28;20028;-74
2023/08/18 13:38:22;;;;;;;4.43;4.03;;;;;;;;;;5064835;28;20075;-74
2023/08/18 13:40:49;;;;;;;5.63;3.83;;;;;;;;;;5069589;28;21202;-76
2023/08/18 13:43:15;;;;;;;6.75;4.10;;;;;;;;;;5063934;28;20120;-74
2023/08/18 13:45:40;;;;;;;4.43;4.00;;;;;;;;;;5063191;28;20100;-75
2023/08/18 13:48:06;;;;;;;5.93;4.28;;;;;;;;;;5064556;28;20028;-73
2023/08/18 13:50:31;;;;;;;4.15;3.80;;;;;;;;;;5062450;28;20027;-76
2023/08/18 13:52:57;;;;;;;6.78;4.40;;;;;;;;;;5042765;28;20031;-73
2023/08/18 13:55:22;;;;;;;4.53;4.00;;;;;;;;;;5054535;28;20419;-73
2023/08/18 13:57:48;;;;;;;5.13;4.20;;;;;;;;;;5062078;28;20039;-73
2023/08/18 14:00:14;;;;;;;8.07;4.72;;;;;;;;;;5063162;28;20028;-73
2023/08/18 14:02:39;;;;;;;4.75;4.15;;;;;;;;;;5062605;28;20028;-74
2023/08/18 14:05:05;;;;;;;7.10;4.50;;;;;;;;;;5060049;28;20366;-77
2023/08/18 14:07:30;;;;;;;7.35;4.20;;;;;;;;;;5062164;28;20028;-75
2023/08/18 14:09:59;;;;;;;6.07;3.92;;;;;;;;;;5062007;28;20059;-78
2023/08/18 14:12:24;;;;;;;5.22;4.32;;;;;;;;;;5063074;28;20597;-74
2023/08/18 14:14:50;;;;;;;6.00;4.10;;;;;;;;;;5063938;28;20153;-74
2023/08/18 14:17:32;;;;;;;5.90;4.45;;;;;;;;;;5063983;28;20038;-72
2023/08/18 14:19:57;;;;;;;4.85;4.13;;;;;;;;;;5062610;28;20036;-74
2023/08/18 14:22:23;;;;;;;4.35;4.05;;;;;;;;;;5044575;28;20032;-75
2023/08/18 14:24:48;;;;;;;5.10;4.68;;;;;;;;;;5043679;28;20023;-76
2023/08/18 14:27:13;;;;;;;6.40;4.28;;;;;;;;;;5063083;28;20024;-72